Time;durP1;ratioP1;P1;durP2;ratioP2;P2;SDS_P1;SDS_P2;PMS_P1;PMS_P2;Temp;Humidity;BMP_temperature;BMP_pressure;BME280_temperature;BME280_humidity;BME280_pressure;Samples;Min_cycle;Max_cycle;Signal;HPM_P1;HPM_P2
2023/07/08 04:03:10;;;;;;;8.68;3.92;;;14.50;71.00;;;;;;5285687;23;20059;-85
2023/07/08 04:05:38;;;;;;;7.73;3.50;;;14.60;70.70;;;;;;4884117;29;20123;-86
2023/07/08 04:08:06;;;;;;;10.88;3.78;;;14.60;70.50;;;;;;4885835;29;20047;-85
2023/07/08 04:10:35;;;;;;;7.60;3.90;;;14.80;69.90;;;;;;4886509;29;20044;-86
2023/07/08 04:13:07;;;;;;;8.35;3.50;;;14.80;70.10;;;;;;4899856;29;20103;-86
2023/07/08 04:15:36;;;;;;;9.68;3.90;;;14.80;70.10;;;;;;4884624;29;20036;-85
2023/07/08 04:18:03;;;;;;;9.07;3.70;;;14.90;70.00;;;;;;4885773;29;20044;-86
2023/07/08 04:20:30;;;;;;;8.35;3.30;;;14.90;70.10;;;;;;4901150;29;20384;-86
2023/07/08 04:22:59;;;;;;;9.43;3.88;;;15.00;69.60;;;;;;4901400;29;20044;-86
2023/07/08 04:25:27;;;;;;;7.53;3.65;;;15.10;69.40;;;;;;4894782;29;20045;-86
2023/07/08 04:27:59;;;;;;;7.22;3.40;;;15.20;68.70;;;;;;4901752;29;20514;-86
2023/07/08 04:30:31;;;;;;;6.53;2.97;;;15.40;68.50;;;;;;4890837;29;20052;-86
2023/07/08 04:33:01;;;;;;;7.13;3.17;;;15.50;67.90;;;;;;4901097;29;20068;-86
2023/07/08 04:35:28;;;;;;;6.90;3.30;;;15.60;67.40;;;;;;4885063;29;20451;-85
2023/07/08 04:37:56;;;;;;;8.02;3.50;;;15.70;67.40;;;;;;4900887;29;20040;-86
2023/07/08 04:40:23;;;;;;;7.57;3.30;;;15.90;67.30;;;;;;4884968;29;20080;-86
2023/07/08 04:42:52;;;;;;;6.97;3.07;;;15.90;66.70;;;;;;4899826;29;20078;-86
2023/07/08 04:45:20;;;;;;;7.13;3.25;;;16.00;66.80;;;;;;4887051;29;20530;-86
2023/07/08 04:47:51;;;;;;;7.00;2.90;;;16.10;66.40;;;;;;4882111;29;20138;-86
2023/07/08 04:50:20;;;;;;;8.85;3.30;;;16.20;65.70;;;;;;4899412;29;20096;-86
2023/07/08 04:52:48;;;;;;;6.97;3.25;;;16.30;65.60;;;;;;4901009;29;20506;-86
2023/07/08 04:55:16;;;;;;;10.10;3.40;;;16.40;66.00;;;;;;4900884;29;20059;-86
2023/07/08 04:57:43;;;;;;;7.45;2.92;;;16.60;64.60;;;;;;4885089;29;20041;-86
2023/07/08 05:00:19;;;;;;;10.90;3.35;;;16.70;64.80;;;;;;4884956;29;20058;-86
2023/07/08 05:02:46;;;;;;;8.03;3.20;;;16.90;64.50;;;;;;4844315;29;1162065;-86
2023/07/08 05:05:14;;;;;;;7.60;3.17;;;17.10;64.00;;;;;;4902217;29;20365;-87
2023/07/08 05:07:41;;;;;;;6.47;2.88;;;17.30;63.40;;;;;;4900586;29;20044;-86
2023/07/08 05:10:08;;;;;;;8.93;2.97;;;17.40;62.80;;;;;;4885312;29;20408;-86
2023/07/08 05:12:36;;;;;;;10.02;3.20;;;17.50;63.20;;;;;;4886623;29;20055;-85
2023/07/08 05:15:04;;;;;;;7.97;3.08;;;17.70;63.10;;;;;;4893751;29;20048;-85
2023/07/08 05:17:34;;;;;;;10.47;3.20;;;17.80;62.90;;;;;;4901466;29;20518;-86
2023/07/08 05:20:03;;;;;;;7.65;3.55;;;17.90;62.30;;;;;;4902412;29;20036;-86
2023/07/08 05:22:30;;;;;;;7.82;3.30;;;18.00;62.30;;;;;;4886310;29;20076;-86
2023/07/08 05:24:58;;;;;;;6.47;3.00;;;18.20;62.60;;;;;;4901738;29;20521;-86
2023/07/08 05:27:25;;;;;;;9.40;3.17;;;18.40;62.00;;;;;;4886029;29;20040;-86
2023/07/08 05:29:53;;;;;;;7.00;2.90;;;18.60;61.40;;;;;;4892655;29;20040;-86
2023/07/08 05:32:21;;;;;;;8.40;3.63;;;18.60;60.70;;;;;;4900673;29;20060;-86
2023/07/08 05:34:48;;;;;;;8.80;3.50;;;18.70;60.60;;;;;;4900884;29;20052;-86
2023/07/08 05:37:16;;;;;;;9.07;3.30;;;18.80;59.80;;;;;;4901074;29;20402;-86
2023/07/08 05:39:43;;;;;;;7.57;3.33;;;18.90;59.70;;;;;;4893427;29;20491;-86
2023/07/08 05:42:10;;;;;;;7.70;3.30;;;19.10;59.80;;;;;;4885982;29;20051;-86
2023/07/08 05:44:37;;;;;;;7.00;3.08;;;19.20;60.10;;;;;;4886256;29;20391;-86
2023/07/08 05:47:04;;;;;;;6.82;3.20;;;19.40;59.30;;;;;;4901075;29;20403;-86
2023/07/08 05:49:31;;;;;;;8.93;2.90;;;19.50;58.50;;;;;;4885532;29;20048;-86
2023/07/08 05:51:58;;;;;;;6.75;3.03;;;19.60;58.30;;;;;;4900634;29;20052;-86
2023/07/08 05:54:25;;;;;;;7.50;3.13;;;19.60;58.00;;;;;;4900681;29;20591;-86
2023/07/08 05:56:53;;;;;;;6.68;3.05;;;19.70;58.00;;;;;;4885578;29;20044;-86
2023/07/08 05:59:20;;;;;;;6.63;2.72;;;19.80;57.60;;;;;;4900982;29;20491;-86
2023/07/08 06:01:47;;;;;;;8.07;3.00;;;19.90;57.90;;;;;;4900709;29;20059;-87
2023/07/08 06:04:14;;;;;;;7.85;3.03;;;20.10;57.40;;;;;;4900851;29;20409;-86
2023/07/08 06:06:41;;;;;;;9.00;2.70;;;20.20;57.10;;;;;;4900469;29;20044;-87
2023/07/08 06:09:08;;;;;;;11.02;2.88;;;20.30;58.20;;;;;;4900698;29;20502;-86
2023/07/08 06:11:35;;;;;;;8.45;2.80;;;20.50;56.00;;;;;;4900047;29;20075;-86
2023/07/08 06:14:03;;;;;;;7.38;2.63;;;20.60;56.00;;;;;;4888084;29;20056;-87
2023/07/08 06:16:31;;;;;;;5.88;2.35;;;20.80;55.30;;;;;;4885884;29;20050;-86
2023/07/08 06:19:10;;;;;;;5.83;2.40;;;21.00;54.90;;;;;;4888902;29;20040;-86
2023/07/08 06:21:37;;;;;;;7.90;2.83;;;21.10;55.80;;;;;;4881563;29;20072;-86
2023/07/08 06:24:05;;;;;;;7.22;2.50;;;21.20;55.50;;;;;;4900078;29;20056;-89
2023/07/08 06:26:32;;;;;;;6.38;2.40;;;21.40;55.30;;;;;;4885259;29;20048;-89
2023/07/08 06:29:04;;;;;;;6.75;2.47;;;21.60;56.20;;;;;;4900408;29;20554;-89
2023/07/08 06:31:31;;;;;;;7.60;2.40;;;21.80;56.10;;;;;;4901002;29;20526;-88
2023/07/08 06:34:00;;;;;;;6.32;2.20;;;22.00;54.20;;;;;;4889419;29;20043;-89
2023/07/08 06:36:31;;;;;;;10.25;2.50;;;22.20;55.70;;;;;;4885625;29;20407;-89
2023/07/08 06:38:58;;;;;;;6.28;2.25;;;22.30;55.50;;;;;;4901296;29;20143;-89
2023/07/08 06:41:25;;;;;;;6.50;2.65;;;22.60;54.60;;;;;;4901252;29;20498;-89
2023/07/08 06:43:53;;;;;;;7.73;2.77;;;22.80;54.40;;;;;;4901179;29;20040;-89
2023/07/08 06:46:24;;;;;;;6.93;3.22;;;23.00;54.20;;;;;;4885760;29;20052;-89
2023/07/08 06:49:00;;;;;;;6.45;2.70;;;23.10;52.10;;;;;;4898175;29;20055;-88
2023/07/08 06:51:28;;;;;;;9.15;2.70;;;23.10;53.20;;;;;;4900792;29;20058;-89
2023/07/08 06:53:55;;;;;;;6.93;2.42;;;23.20;51.10;;;;;;4885822;29;20095;-89
2023/07/08 06:56:26;;;;;;;7.80;2.47;;;23.40;51.50;;;;;;4900942;29;20082;-89
2023/07/08 06:58:53;;;;;;;10.65;2.75;;;23.60;50.60;;;;;;4900415;29;20044;-88
2023/07/08 07:01:20;;;;;;;5.47;2.20;;;23.70;51.40;;;;;;4884639;29;20064;-89
2023/07/08 07:03:47;;;;;;;6.68;2.10;;;23.80;49.00;;;;;;4900256;29;20072;-89
2023/07/08 07:06:14;;;;;;;8.38;2.03;;;23.90;48.70;;;;;;4910971;29;20047;-88
2023/07/08 07:08:41;;;;;;;5.20;2.40;;;24.00;47.90;;;;;;4890796;29;20052;-88
2023/07/08 07:11:08;;;;;;;7.10;2.20;;;24.20;48.20;;;;;;4900154;29;20048;-89
2023/07/08 07:13:36;;;;;;;11.20;2.25;;;24.30;46.90;;;;;;4900485;29;20044;-87
2023/07/08 07:16:03;;;;;;;4.50;1.73;;;24.40;47.60;;;;;;4899933;29;20044;-87
2023/07/08 07:18:30;;;;;;;5.68;1.80;;;24.50;46.30;;;;;;4899685;29;20060;-85
2023/07/08 07:20:59;;;;;;;5.10;1.80;;;24.60;47.10;;;;;;4884368;29;20048;-86
2023/07/08 07:23:26;;;;;;;4.15;1.75;;;24.80;46.90;;;;;;4898158;29;20541;-88
2023/07/08 07:25:53;;;;;;;5.00;1.85;;;24.90;45.70;;;;;;4899103;29;20058;-86
2023/07/08 07:28:21;;;;;;;5.00;1.80;;;25.00;45.10;;;;;;4882232;29;20052;-86
2023/07/08 07:30:57;;;;;;;4.47;1.60;;;25.10;43.90;;;;;;4882755;29;20076;-88
2023/07/08 07:33:27;;;;;;;4.57;1.40;;;25.10;43.50;;;;;;4899281;29;20044;-87
2023/07/08 07:35:54;;;;;;;5.97;1.50;;;25.30;42.00;;;;;;4893663;29;20080;-87
2023/07/08 07:38:21;;;;;;;6.03;1.80;;;25.40;42.50;;;;;;4900188;29;20052;-87
2023/07/08 07:40:52;;;;;;;4.88;1.65;;;25.60;41.50;;;;;;4895765;29;20521;-87
2023/07/08 07:43:19;;;;;;;5.35;1.60;;;25.70;41.70;;;;;;4918263;29;20041;-86
2023/07/08 07:45:52;;;;;;;5.57;1.80;;;25.80;42.80;;;;;;4898617;29;20040;-86
2023/07/08 07:48:20;;;;;;;6.40;1.80;;;25.90;40.80;;;;;;4898857;29;20048;-86
2023/07/08 07:50:49;;;;;;;5.15;1.60;;;25.90;40.60;;;;;;4899631;29;20603;-87
2023/07/08 07:53:16;;;;;;;6.57;1.98;;;26.00;40.70;;;;;;4899256;29;20048;-87
2023/07/08 07:55:43;;;;;;;5.57;1.75;;;26.00;39.40;;;;;;4899231;29;20051;-86
2023/07/08 07:58:11;;;;;;;5.37;1.73;;;25.90;36.80;;;;;;4899361;29;20060;-87
2023/07/08 08:00:39;;;;;;;5.45;1.90;;;25.90;37.20;;;;;;4904678;29;20044;-86
2023/07/08 08:03:06;;;;;;;5.30;1.90;;;26.00;40.90;;;;;;4882367;29;20048;-89
2023/07/08 08:05:33;;;;;;;8.80;2.13;;;25.90;39.00;;;;;;4894246;29;20120;-88
2023/07/08 08:08:03;;;;;;;5.65;1.90;;;25.90;40.20;;;;;;4895822;29;20455;-87
2023/07/08 08:10:32;;;;;;;7.93;2.40;;;26.00;38.80;;;;;;4884132;29;20127;-87
2023/07/08 08:13:00;;;;;;;6.03;1.90;;;26.10;38.80;;;;;;4878381;29;20048;-87
2023/07/08 08:15:27;;;;;;;5.32;1.60;;;26.20;39.40;;;;;;4885392;29;20048;-88
2023/07/08 08:17:54;;;;;;;5.22;1.70;;;26.40;39.20;;;;;;4897149;29;20036;-88
2023/07/08 08:20:24;;;;;;;5.80;1.85;;;26.50;37.70;;;;;;4886349;29;20441;-87
2023/07/08 08:22:51;;;;;;;10.17;2.70;;;26.60;37.20;;;;;;4899366;29;20072;-87
2023/07/08 08:25:20;;;;;;;9.57;2.40;;;26.60;38.60;;;;;;4885328;29;20048;-88
2023/07/08 08:27:47;;;;;;;8.25;3.08;;;26.50;36.80;;;;;;4896636;29;20047;-87
2023/07/08 08:30:14;;;;;;;7.95;2.47;;;26.50;37.20;;;;;;4895135;29;20055;-88
2023/07/08 08:32:41;;;;;;;7.53;2.17;;;26.50;37.60;;;;;;4897424;29;20043;-89
2023/07/08 08:35:08;;;;;;;8.53;2.53;;;26.60;37.10;;;;;;4899592;29;20043;-88
2023/07/08 08:37:38;;;;;;;6.57;2.13;;;26.70;38.30;;;;;;4886018;29;20410;-88
2023/07/08 08:40:11;;;;;;;6.55;2.00;;;26.90;37.00;;;;;;4886282;29;20438;-91
2023/07/08 08:42:46;;;;;;;6.35;1.90;;;26.90;36.50;;;;;;4902279;29;20041;-90
2023/07/08 08:45:17;;;;;;;4.82;1.58;;;27.10;37.40;;;;;;4903805;29;20127;-92
2023/07/08 08:47:47;;;;;;;4.07;1.40;;;27.10;40.00;;;;;;4903917;29;20045;-92
2023/07/08 08:50:44;;;;;;;3.50;1.60;;;27.10;38.60;;;;;;4903860;29;20094;-90
2023/07/08 08:53:19;;;;;;;4.57;2.08;;;27.20;39.40;;;;;;4903617;29;20126;-90
2023/07/08 08:55:54;;;;;;;4.13;1.50;;;27.20;37.90;;;;;;4903665;29;20056;-89
2023/07/08 08:58:44;;;;;;;5.55;2.15;;;27.20;37.40;;;;;;4903335;29;20079;-91
2023/07/08 09:01:14;;;;;;;5.33;1.70;;;27.30;36.80;;;;;;4888267;29;20088;-91
2023/07/08 09:03:56;;;;;;;6.25;1.90;;;27.30;37.40;;;;;;4888314;29;20086;-91
2023/07/08 09:06:32;;;;;;;5.72;2.17;;;27.30;38.00;;;;;;4903122;29;20059;-90
2023/07/08 09:09:16;;;;;;;5.50;1.80;;;27.50;38.10;;;;;;4898257;29;20040;-93
2023/07/08 09:12:02;;;;;;;9.60;4.15;;;27.50;38.90;;;;;;4881207;29;20547;-91
2023/07/08 09:14:32;;;;;;;7.03;2.37;;;27.40;35.80;;;;;;4903813;29;20107;-91
2023/07/08 09:17:18;;;;;;;7.93;2.33;;;27.30;36.30;;;;;;4903662;29;20451;-92
2023/07/08 09:20:24;;;;;;;8.20;2.70;;;27.40;37.20;;;;;;4903784;29;20131;-93
2023/07/08 09:23:27;;;;;;;7.82;2.28;;;27.50;36.20;;;;;;4903282;29;20193;-93
2023/07/08 09:26:07;;;;;;;5.35;1.83;;;27.50;36.10;;;;;;4888807;29;20044;-92
2023/07/08 09:28:45;;;;;;;7.40;1.90;;;27.60;36.10;;;;;;4888220;29;20048;-90
2023/07/08 09:31:28;;;;;;;5.03;1.50;;;27.60;36.30;;;;;;4887746;29;20554;-88
2023/07/08 09:34:09;;;;;;;7.07;1.65;;;27.50;36.40;;;;;;4902627;29;20051;-90
2023/07/08 09:36:41;;;;;;;5.47;1.52;;;27.40;36.00;;;;;;4903107;29;20052;-90
2023/07/08 09:39:17;;;;;;;5.28;1.60;;;27.40;38.10;;;;;;4902999;29;20059;-90
2023/07/08 09:41:47;;;;;;;5.10;1.77;;;27.60;38.40;;;;;;4902720;29;20135;-90
2023/07/08 09:44:28;;;;;;;5.93;1.85;;;27.60;38.20;;;;;;4902525;29;20510;-90
2023/07/08 09:46:58;;;;;;;4.03;1.80;;;27.60;37.10;;;;;;4912311;29;20471;-90
2023/07/08 09:49:35;;;;;;;5.85;1.80;;;27.50;36.50;;;;;;4885809;29;20096;-90
2023/07/08 09:52:04;;;;;;;5.20;1.92;;;27.60;36.20;;;;;;4898362;29;20407;-89
2023/07/08 09:54:32;;;;;;;4.40;1.90;;;27.60;37.90;;;;;;4885838;29;20142;-90
2023/07/08 09:57:21;;;;;;;5.68;2.08;;;27.70;35.50;;;;;;4901699;29;20138;-90
2023/07/08 09:59:55;;;;;;;6.78;1.90;;;27.90;37.30;;;;;;4885803;29;20533;-90
2023/07/08 10:02:33;;;;;;;5.30;1.95;;;27.90;36.20;;;;;;4900621;29;20064;-90
2023/07/08 10:05:10;;;;;;;5.57;1.80;;;27.90;36.90;;;;;;4901716;29;20082;-90
2023/07/08 10:07:37;;;;;;;26.60;2.83;;;27.80;36.80;;;;;;4901446;29;20103;-90
2023/07/08 10:10:12;;;;;;;8.05;1.90;;;27.90;36.30;;;;;;4886352;29;20054;-89
2023/07/08 10:12:42;;;;;;;5.88;1.90;;;28.00;36.60;;;;;;4898006;29;20071;-89
2023/07/08 10:15:21;;;;;;;7.15;1.77;;;28.00;36.50;;;;;;4898006;29;20048;-91
2023/07/08 10:17:48;;;;;;;5.88;2.00;;;28.10;37.10;;;;;;4905970;29;20052;-90
2023/07/08 10:20:15;;;;;;;4.20;1.57;;;28.10;37.00;;;;;;4901044;29;20036;-90
2023/07/08 10:23:17;;;;;;;4.75;1.70;;;28.00;36.40;;;;;;4882839;29;20562;-90
2023/07/08 10:25:55;;;;;;;6.20;1.77;;;27.70;37.60;;;;;;4898156;29;20040;-90
2023/07/08 10:28:31;;;;;;;5.57;1.80;;;27.70;36.80;;;;;;4901041;29;20052;-90
2023/07/08 10:31:20;;;;;;;5.82;1.90;;;27.90;37.00;;;;;;4881779;29;20502;-90
2023/07/08 10:34:02;;;;;;;6.23;1.70;;;28.00;35.70;;;;;;4885323;29;20399;-90
2023/07/08 10:36:47;;;;;;;6.97;2.10;;;28.00;36.30;;;;;;4898828;29;20043;-90
2023/07/08 10:39:29;;;;;;;6.07;2.33;;;28.30;35.20;;;;;;4902082;29;20471;-92
2023/07/08 10:42:28;;;;;;;5.80;2.05;;;28.50;34.60;;;;;;4902367;29;20048;-92
2023/07/08 10:45:34;;;;;;;5.00;1.90;;;28.70;35.00;;;;;;4886987;29;20044;-91
2023/07/08 10:48:25;;;;;;;4.47;1.73;;;28.70;35.40;;;;;;4897032;29;20052;-91
2023/07/08 10:51:26;;;;;;;5.15;1.83;;;28.60;35.60;;;;;;4902335;29;20048;-91
2023/07/08 10:54:18;;;;;;;5.18;1.65;;;28.60;35.30;;;;;;4868007;29;20059;-92
2023/07/08 10:57:21;;;;;;;4.85;1.70;;;28.60;35.10;;;;;;4883285;29;20061;-91
2023/07/08 11:00:08;;;;;;;4.13;1.70;;;28.70;35.30;;;;;;4851127;29;20108;-91
2023/07/08 11:02:38;;;;;;;5.20;1.97;;;28.50;35.20;;;;;;4867767;29;20156;-91
2023/07/08 11:05:39;;;;;;;4.78;1.80;;;28.50;37.10;;;;;;4887224;29;20387;-91
2023/07/08 11:08:11;;;;;;;15.30;3.33;;;28.70;37.40;;;;;;4901838;29;20052;-91
2023/07/08 11:11:01;;;;;;;5.55;1.70;;;28.80;36.40;;;;;;4886494;29;20048;-91
2023/07/08 11:14:08;;;;;;;5.65;2.05;;;28.80;35.00;;;;;;4901493;29;20146;-91
2023/07/08 11:16:45;;;;;;;5.67;2.20;;;28.60;36.00;;;;;;4886640;29;20135;-91
2023/07/08 11:19:21;;;;;;;8.82;2.30;;;28.60;35.80;;;;;;4901726;29;20071;-91
2023/07/08 11:21:54;;;;;;;5.28;1.90;;;28.60;39.10;;;;;;4886098;29;20498;-91
2023/07/08 11:24:46;;;;;;;6.40;2.20;;;28.60;36.50;;;;;;4886019;29;20484;-90
2023/07/08 11:27:27;;;;;;;14.73;2.42;;;28.60;35.80;;;;;;4900769;29;20048;-91
2023/07/08 11:30:05;;;;;;;5.83;2.20;;;28.70;35.90;;;;;;4901857;29;20485;-91
2023/07/08 11:32:43;;;;;;;7.82;2.30;;;28.80;35.70;;;;;;4901789;29;20486;-92
2023/07/08 11:35:21;;;;;;;6.63;2.20;;;29.10;36.80;;;;;;4901435;29;20598;-92
2023/07/08 11:37:49;;;;;;;6.18;2.22;;;29.20;36.50;;;;;;4901414;29;20048;-92
2023/07/08 11:40:22;;;;;;;8.43;2.30;;;29.10;35.90;;;;;;4901432;29;20054;-91
2023/07/08 11:43:00;;;;;;;6.07;1.97;;;29.20;36.10;;;;;;4901579;29;20091;-91
2023/07/08 11:45:31;;;;;;;5.43;1.88;;;29.40;34.80;;;;;;4901097;29;20052;-91
2023/07/08 11:48:28;;;;;;;4.88;2.00;;;29.50;35.80;;;;;;4901541;29;20079;-91
2023/07/08 11:50:57;;;;;;;6.22;2.00;;;29.40;36.10;;;;;;4885218;29;20084;-90
2023/07/08 11:53:34;;;;;;;6.43;2.03;;;29.40;34.10;;;;;;4901217;29;20052;-90
2023/07/08 11:56:18;;;;;;;4.50;1.83;;;29.40;34.20;;;;;;4901187;29;20056;-90
2023/07/08 11:58:48;;;;;;;5.97;2.10;;;29.40;34.30;;;;;;4900953;29;20048;-91
2023/07/08 12:01:27;;;;;;;7.18;2.55;;;29.60;36.10;;;;;;4885667;29;20055;-91
2023/07/08 12:04:15;;;;;;;5.47;2.08;;;29.60;35.00;;;;;;4885274;29;20070;-90
2023/07/08 12:06:48;;;;;;;5.50;2.17;;;29.70;34.10;;;;;;4885166;29;20045;-90
2023/07/08 12:09:45;;;;;;;7.60;2.13;;;29.60;34.20;;;;;;4887532;29;20048;-90
2023/07/08 12:12:25;;;;;;;6.15;2.00;;;29.70;34.90;;;;;;4904542;29;20048;-90
2023/07/08 12:15:22;;;;;;;5.72;2.45;;;29.60;33.70;;;;;;4904781;29;20103;-90
2023/07/08 12:17:51;;;;;;;6.18;2.13;;;29.60;33.70;;;;;;4889045;29;20082;-90
2023/07/08 12:20:31;;;;;;;6.68;2.00;;;29.70;34.70;;;;;;4888677;29;20548;-89
2023/07/08 12:22:58;;;;;;;4.77;2.10;;;29.60;33.80;;;;;;4904890;29;20051;-90
2023/07/08 12:25:36;;;;;;;5.15;1.98;;;29.60;34.20;;;;;;4889268;29;20052;-90
2023/07/08 12:28:04;;;;;;;5.72;2.28;;;29.70;36.80;;;;;;4904461;29;20513;-91
2023/07/08 12:30:33;;;;;;;5.45;1.85;;;29.80;34.10;;;;;;4894693;29;20055;-90
2023/07/08 12:33:01;;;;;;;6.50;2.28;;;29.80;34.50;;;;;;4900038;29;20052;-92
2023/07/08 12:35:34;;;;;;;4.70;1.90;;;29.90;37.10;;;;;;4904881;29;20060;-93
2023/07/08 12:38:19;;;;;;;6.72;2.10;;;30.00;35.50;;;;;;4904694;29;20080;-91
2023/07/08 12:40:46;;;;;;;5.18;1.63;;;30.00;34.10;;;;;;4904443;29;20052;-92
2023/07/08 12:43:15;;;;;;;7.13;2.20;;;30.00;33.90;;;;;;4888867;29;20401;-92
2023/07/08 12:45:43;;;;;;;5.50;2.13;;;30.20;32.90;;;;;;4904452;29;20131;-92
2023/07/08 12:48:10;;;;;;;5.17;1.80;;;30.40;34.40;;;;;;4888729;29;20135;-93
2023/07/08 12:50:38;;;;;;;4.65;2.00;;;30.40;32.90;;;;;;4904243;29;20124;-92
2023/07/08 12:53:09;;;;;;;4.80;1.70;;;30.50;35.30;;;;;;4904520;29;20056;-92
2023/07/08 12:55:42;;;;;;;5.45;1.98;;;30.40;33.50;;;;;;4904131;29;20052;-92
2023/07/08 12:58:16;;;;;;;5.25;2.00;;;30.20;33.30;;;;;;4904416;29;20056;-92
2023/07/08 13:00:44;;;;;;;4.80;1.90;;;30.20;33.70;;;;;;4888518;29;20499;-92
2023/07/08 13:03:23;;;;;;;4.65;1.98;;;30.20;34.10;;;;;;4888479;29;20410;-92
2023/07/08 13:05:54;;;;;;;4.68;1.77;;;30.40;33.10;;;;;;4904155;29;20079;-92
2023/07/08 13:08:24;;;;;;;4.72;1.75;;;30.40;32.80;;;;;;4904086;29;20414;-92
2023/07/08 13:10:55;;;;;;;15.30;7.38;;;30.50;34.80;;;;;;4904358;29;20051;-92
2023/07/08 13:13:51;;;;;;;5.77;2.17;;;30.40;34.90;;;;;;4904057;29;20059;-92
2023/07/08 13:16:19;;;;;;;4.95;2.00;;;30.30;33.00;;;;;;4903871;29;20491;-93
2023/07/08 13:18:47;;;;;;;6.20;2.50;;;30.30;32.90;;;;;;4888445;29;20048;-92
2023/07/08 13:21:16;;;;;;;5.93;2.20;;;30.30;34.00;;;;;;4903840;29;20091;-92
2023/07/08 13:23:43;;;;;;;4.57;1.83;;;30.30;32.00;;;;;;4903738;29;20435;-92
2023/07/08 13:26:20;;;;;;;4.77;2.10;;;30.30;32.50;;;;;;4904150;29;20071;-92
2023/07/08 13:28:49;;;;;;;13.73;3.42;;;30.30;32.80;;;;;;4903856;29;20490;-92
2023/07/08 13:31:22;;;;;;;10.30;3.00;;;30.40;33.20;;;;;;4904009;29;20056;-93
2023/07/08 13:33:55;;;;;;;5.68;1.88;;;30.50;33.70;;;;;;4919829;29;20111;-92
2023/07/08 13:36:35;;;;;;;5.50;1.90;;;30.50;32.50;;;;;;4903590;29;20071;-93
2023/07/08 13:39:09;;;;;;;5.03;1.90;;;30.60;32.10;;;;;;4904384;29;20490;-92
2023/07/08 13:41:44;;;;;;;4.95;1.73;;;30.70;31.90;;;;;;4903734;29;20052;-92
2023/07/08 13:44:12;;;;;;;5.43;1.92;;;30.60;31.90;;;;;;4903378;29;20048;-92
2023/07/08 13:46:40;;;;;;;5.72;2.20;;;30.50;32.90;;;;;;4903295;29;20052;-92
2023/07/08 13:49:15;;;;;;;5.68;1.92;;;30.50;35.40;;;;;;4903215;29;20399;-91
2023/07/08 13:51:45;;;;;;;4.43;2.10;;;30.50;34.90;;;;;;4903814;29;20048;-92
2023/07/08 13:54:33;;;;;;;8.13;2.25;;;30.30;34.90;;;;;;4903140;29;20060;-92
2023/07/08 13:57:02;;;;;;;6.15;2.50;;;30.40;34.00;;;;;;4903390;29;20052;-92
2023/07/08 13:59:29;;;;;;;6.30;1.98;;;30.50;34.40;;;;;;4903184;29;20052;-92
2023/07/08 14:01:57;;;;;;;6.93;2.20;;;30.60;34.40;;;;;;4888130;29;20095;-93
2023/07/08 14:04:34;;;;;;;5.80;2.07;;;30.60;34.40;;;;;;4903086;29;20044;-92
2023/07/08 14:07:01;;;;;;;7.15;2.05;;;30.50;33.60;;;;;;4903155;29;20044;-93
2023/07/08 14:09:31;;;;;;;5.28;2.38;;;30.40;33.40;;;;;;4898731;29;20100;-93
2023/07/08 14:11:58;;;;;;;4.88;1.80;;;30.50;32.50;;;;;;4902271;29;20041;-92
2023/07/08 14:14:25;;;;;;;5.45;2.05;;;30.50;32.90;;;;;;4918754;29;20458;-93
2023/07/08 14:16:54;;;;;;;4.80;1.90;;;30.50;33.20;;;;;;4903030;29;20206;-93
2023/07/08 14:19:27;;;;;;;8.60;2.10;;;30.50;33.10;;;;;;4903180;29;20044;-92
2023/07/08 14:21:56;;;;;;;6.30;1.98;;;30.60;32.90;;;;;;4918543;29;20051;-92
2023/07/08 14:24:24;;;;;;;7.80;2.17;;;30.60;33.10;;;;;;4918309;29;20044;-92
2023/07/08 14:26:53;;;;;;;4.82;1.73;;;30.60;33.90;;;;;;4903086;29;20139;-93
2023/07/08 14:29:23;;;;;;;5.40;2.10;;;30.60;33.10;;;;;;4902656;29;20052;-92
2023/07/08 14:31:51;;;;;;;3.92;1.70;;;30.40;32.30;;;;;;4902045;29;20086;-93
2023/07/08 14:34:25;;;;;;;5.13;2.03;;;30.40;32.80;;;;;;4887417;29;20107;-93
2023/07/08 14:36:55;;;;;;;5.35;2.03;;;30.40;33.90;;;;;;4902718;29;20060;-94
2023/07/08 14:39:31;;;;;;;4.65;1.90;;;30.50;34.40;;;;;;4887441;29;20056;-92
2023/07/08 14:41:59;;;;;;;4.97;2.13;;;30.60;32.80;;;;;;4903015;29;21402;-92
2023/07/08 14:44:34;;;;;;;4.38;1.90;;;30.70;33.20;;;;;;4887114;29;20139;-92
2023/07/08 14:47:09;;;;;;;5.53;2.10;;;30.60;33.20;;;;;;4902537;29;20048;-94
2023/07/08 14:49:37;;;;;;;4.78;1.90;;;30.50;32.60;;;;;;4902436;29;20459;-94
2023/07/08 14:52:04;;;;;;;4.82;1.88;;;30.50;33.50;;;;;;4886972;29;20074;-93
2023/07/08 14:54:32;;;;;;;5.53;2.00;;;30.60;33.90;;;;;;4903033;29;20052;-93
2023/07/08 14:57:00;;;;;;;6.97;2.08;;;30.70;34.40;;;;;;4887757;29;20470;-92
2023/07/08 14:59:31;;;;;;;5.38;1.83;;;30.90;34.30;;;;;;4902687;29;20460;-94
2023/07/08 15:02:00;;;;;;;5.20;1.52;;;31.10;34.20;;;;;;4902783;29;20491;-93
2023/07/08 15:04:27;;;;;;;5.47;1.98;;;31.10;32.90;;;;;;4886319;29;20052;-91
2023/07/08 15:06:58;;;;;;;4.07;2.00;;;30.90;32.90;;;;;;4901904;29;20070;-93
2023/07/08 15:09:25;;;;;;;5.38;2.13;;;30.60;32.20;;;;;;4901814;29;20048;-91
2023/07/08 15:11:53;;;;;;;4.28;2.05;;;30.60;33.80;;;;;;4901867;29;20143;-92
2023/07/08 15:14:24;;;;;;;5.60;1.80;;;30.60;35.00;;;;;;4901879;29;20044;-92
2023/07/08 15:16:51;;;;;;;5.15;1.80;;;30.60;34.90;;;;;;4886465;29;20044;-93
2023/07/08 15:19:20;;;;;;;4.57;1.90;;;30.60;33.50;;;;;;4901634;29;20144;-90
2023/07/08 15:21:47;;;;;;;5.03;1.90;;;30.60;34.10;;;;;;4901013;29;20079;-90
2023/07/08 15:24:15;;;;;;;7.05;1.77;;;30.60;33.90;;;;;;4917085;29;20048;-90
2023/07/08 15:26:52;;;;;;;5.82;1.85;;;30.30;33.50;;;;;;4900942;29;20044;-90
2023/07/08 15:29:22;;;;;;;4.03;1.55;;;30.10;34.50;;;;;;4885485;29;20050;-90
2023/07/08 15:31:50;;;;;;;6.67;2.00;;;30.10;33.50;;;;;;4885839;29;20100;-91
2023/07/08 15:34:22;;;;;;;3.97;1.65;;;30.20;34.70;;;;;;4901234;29;20059;-91
2023/07/08 15:36:52;;;;;;;5.47;1.92;;;30.50;35.30;;;;;;4897052;29;20055;-91
2023/07/08 15:39:21;;;;;;;6.20;1.75;;;30.70;34.90;;;;;;4901394;29;20083;-91
2023/07/08 15:41:48;;;;;;;6.03;2.20;;;30.80;33.80;;;;;;4901201;29;20041;-91
2023/07/08 15:44:15;;;;;;;5.47;1.90;;;30.90;33.80;;;;;;4899928;29;20499;-91
2023/07/08 15:46:45;;;;;;;5.15;1.90;;;30.90;34.40;;;;;;4900183;29;20040;-92
2023/07/08 15:49:30;;;;;;;4.47;1.90;;;30.70;33.80;;;;;;4899834;29;20067;-93
2023/07/08 15:51:57;;;;;;;4.72;1.95;;;30.70;33.70;;;;;;4882518;29;20562;-90
2023/07/08 15:54:24;;;;;;;4.70;1.80;;;30.70;34.00;;;;;;4900677;29;20465;-90
2023/07/08 15:56:56;;;;;;;4.60;2.00;;;30.70;33.90;;;;;;4883251;29;20058;-90
2023/07/08 15:59:27;;;;;;;4.57;1.80;;;30.60;33.30;;;;;;4884931;29;20052;-90
2023/07/08 16:01:54;;;;;;;4.95;2.00;;;30.20;34.70;;;;;;4900306;29;20056;-90
2023/07/08 16:04:25;;;;;;;5.05;1.90;;;30.10;35.40;;;;;;4900603;29;20104;-90
2023/07/08 16:06:52;;;;;;;5.32;2.13;;;30.00;35.20;;;;;;4899649;29;20459;-89
2023/07/08 16:09:19;;;;;;;3.63;1.53;;;29.80;34.80;;;;;;4893327;29;20135;-90
2023/07/08 16:11:47;;;;;;;5.43;1.85;;;29.70;34.50;;;;;;4884571;29;20569;-90
2023/07/08 16:14:15;;;;;;;4.45;1.92;;;29.60;35.30;;;;;;4884959;29;20055;-90
2023/07/08 16:16:43;;;;;;;6.13;2.20;;;29.50;34.70;;;;;;4883060;29;20052;-90
2023/07/08 16:19:12;;;;;;;4.75;1.63;;;29.50;35.30;;;;;;4900335;29;20052;-90
2023/07/08 16:21:40;;;;;;;6.00;2.10;;;29.40;35.60;;;;;;4900064;29;20040;-90
2023/07/08 16:24:08;;;;;;;4.63;1.80;;;29.40;35.40;;;;;;4900683;29;20132;-90
2023/07/08 16:26:37;;;;;;;4.43;1.90;;;29.30;35.50;;;;;;4899996;29;20494;-90
2023/07/08 16:29:06;;;;;;;5.68;1.90;;;29.30;36.40;;;;;;4895309;29;20051;-90
2023/07/08 16:31:33;;;;;;;6.80;2.20;;;29.40;36.00;;;;;;4897860;29;20450;-89
2023/07/08 16:34:01;;;;;;;4.80;2.03;;;29.40;35.60;;;;;;4900398;29;20510;-90
2023/07/08 16:36:28;;;;;;;5.82;2.20;;;29.30;35.60;;;;;;4884677;29;20510;-90
2023/07/08 16:38:55;;;;;;;6.45;2.30;;;29.30;35.70;;;;;;4890974;29;20076;-90
2023/07/08 16:41:29;;;;;;;6.85;2.42;;;29.30;36.00;;;;;;4884391;29;20056;-90
2023/07/08 16:43:56;;;;;;;6.75;2.13;;;29.40;35.70;;;;;;4879580;29;20047;-90
2023/07/08 16:46:23;;;;;;;5.37;1.90;;;29.40;36.00;;;;;;4900276;29;20051;-90
2023/07/08 16:48:51;;;;;;;4.97;1.90;;;29.30;35.90;;;;;;4900064;29;20443;-90
2023/07/08 16:51:23;;;;;;;4.85;1.90;;;29.20;36.30;;;;;;4900093;29;20055;-90
2023/07/08 16:53:51;;;;;;;6.07;2.15;;;29.10;36.50;;;;;;4884784;29;20104;-90
2023/07/08 16:56:19;;;;;;;6.75;2.22;;;29.10;36.10;;;;;;4887658;29;20048;-90
2023/07/08 16:58:47;;;;;;;7.73;2.10;;;29.10;36.10;;;;;;4903617;29;20091;-90
2023/07/08 17:01:22;;;;;;;6.00;2.28;;;29.10;36.10;;;;;;4902746;29;20506;-90
2023/07/08 17:03:52;;;;;;;5.13;2.05;;;29.20;35.80;;;;;;4902953;29;20056;-90
2023/07/08 17:06:19;;;;;;;5.63;1.80;;;29.20;37.00;;;;;;4888254;29;20051;-90
2023/07/08 17:08:49;;;;;;;5.82;2.13;;;29.30;36.10;;;;;;4902326;29;20055;-90
2023/07/08 17:11:17;;;;;;;5.13;2.10;;;29.30;36.50;;;;;;4902904;29;20079;-90
2023/07/08 17:13:44;;;;;;;4.80;1.75;;;29.40;37.10;;;;;;4902807;29;20063;-90